PWSweather.com
Personal Weather Stations
Station Observations
PORTLG2
PortalegrePT

PortalegrePT

Lat: 39.2764932, Lon: -7.423681600000009

Elevation: 1312

Station Type: Davis Vantage Vue

Latest ConditionsUpdated 7:40:02 AM GMT Thursday, Jul 18, 2019
Currently Today's Max Today's Min Today's Average
Temperature 65.7°F18.7°C 65.7°F18.7°C 57.9°F14.4°C 60.0°F15.6°C
Dew Point 58.3°F14.6°C 58.5°F14.7°C 55.4°F13.0°C 56.6°F13.7°C
Winds 1.2 mph NW1.9 kmh NW 4.6 mph -7.4 kmh - - 1.6 mph 2.6 kmh
Wind Gusts 2.3 mph3.7 kmh 5.8 mph9.3 kmh - -
Humidity 77% 92% 77% 88%
Pressure 29.99 in1015.6 mb 30.00 in1015.9 mb 29.96 in1014.6 mb -
Hour Temp Dew Point Humidity Winds Wind Gusts Pressure Precip Precip Rate Daily Precip Total
07:40 AM 65.7°F18.7°C 58.3°F14.6°C 77% 1.2 mph NW1.9 kmh NW 2.3 mph3.7 kmh 29.99 in1015.6 mb - 0.00 in0.0 mm 0.00 in0.0 mm
07:30 AM 64.6°F18.1°C 58.3°F14.6°C 80% Calm Calm -- 29.98 in1015.2 mb - 0.00 in0.0 mm 0.00 in0.0 mm
07:20 AM 63.4°F17.4°C 58.5°F14.7°C 84% Calm Calm 1.2 mph1.9 kmh 29.98 in1015.2 mb - 0.00 in0.0 mm 0.00 in0.0 mm
07:10 AM 61.7°F16.5°C 57.8°F14.3°C 87% Calm Calm 1.2 mph1.9 kmh 29.98 in1015.2 mb - 0.00 in0.0 mm 0.00 in0.0 mm
07:00 AM 60.6°F15.9°C 56.7°F13.7°C 87% 1.2 mph ESE1.9 kmh ESE 2.3 mph3.7 kmh 29.98 in1015.2 mb - 0.00 in0.0 mm 0.00 in0.0 mm
06:50 AM 59.6°F15.3°C 56.9°F13.8°C 91% Calm Calm 1.2 mph1.9 kmh 29.98 in1015.2 mb - 0.00 in0.0 mm 0.00 in0.0 mm
06:40 AM 59.0°F15.0°C 56.1°F13.4°C 90% 2.3 mph ESE3.7 kmh ESE 3.5 mph5.6 kmh 29.98 in1015.2 mb - 0.00 in0.0 mm 0.00 in0.0 mm
06:30 AM 59.1°F15.1°C 55.8°F13.2°C 89% 3.5 mph SE5.6 kmh SE 3.5 mph5.6 kmh 29.97 in1014.9 mb - 0.00 in0.0 mm 0.00 in0.0 mm
06:20 AM 59.0°F15.0°C 56.1°F13.4°C 90% 2.3 mph SE3.7 kmh SE 3.5 mph5.6 kmh 29.97 in1014.9 mb - 0.00 in0.0 mm 0.00 in0.0 mm
06:10 AM 58.5°F14.7°C 55.8°F13.2°C 91% 1.2 mph SE1.9 kmh SE 2.3 mph3.7 kmh 29.97 in1014.9 mb - 0.00 in0.0 mm 0.00 in0.0 mm
06:00 AM 57.9°F14.4°C 55.6°F13.1°C 92% 1.2 mph SSE1.9 kmh SSE 2.3 mph3.7 kmh 29.96 in1014.6 mb - 0.00 in0.0 mm 0.00 in0.0 mm
05:50 AM 58.0°F14.4°C 55.7°F13.2°C 92% 1.2 mph S1.9 kmh S 1.2 mph1.9 kmh 29.96 in1014.6 mb - 0.00 in0.0 mm 0.00 in0.0 mm
05:40 AM 58.1°F14.5°C 55.8°F13.2°C 92% Calm Calm 1.2 mph1.9 kmh 29.96 in1014.6 mb - 0.00 in0.0 mm 0.00 in0.0 mm
05:30 AM 58.0°F14.4°C 55.7°F13.2°C 92% Calm Calm -- 29.96 in1014.6 mb - 0.00 in0.0 mm 0.00 in0.0 mm
05:20 AM 58.0°F14.4°C 55.4°F13.0°C 91% Calm Calm 1.2 mph1.9 kmh 29.96 in1014.6 mb - 0.00 in0.0 mm 0.00 in0.0 mm
05:10 AM 58.2°F14.6°C 55.9°F13.3°C 92% Calm Calm -- 29.96 in1014.6 mb - 0.00 in0.0 mm 0.00 in0.0 mm
05:00 AM 58.3°F14.6°C 56.0°F13.3°C 92% Calm Calm -- 29.96 in1014.6 mb - 0.00 in0.0 mm 0.00 in0.0 mm
04:50 AM 58.4°F14.7°C 56.1°F13.4°C 92% Calm Calm 1.2 mph1.9 kmh 29.96 in1014.6 mb - 0.00 in0.0 mm 0.00 in0.0 mm
04:40 AM 58.4°F14.7°C 55.8°F13.2°C 91% Calm Calm 1.2 mph1.9 kmh 29.96 in1014.6 mb - 0.00 in0.0 mm 0.00 in0.0 mm
04:30 AM 58.5°F14.7°C 55.9°F13.3°C 91% 1.2 mph W1.9 kmh W 3.5 mph5.6 kmh 29.96 in1014.6 mb - 0.00 in0.0 mm 0.00 in0.0 mm
04:20 AM 58.6°F14.8°C 56.0°F13.3°C 91% 3.5 mph NW5.6 kmh NW 3.5 mph5.6 kmh 29.97 in1014.9 mb - 0.00 in0.0 mm 0.00 in0.0 mm
04:10 AM 58.7°F14.8°C 56.0°F13.3°C 91% Calm Calm 2.3 mph3.7 kmh 29.97 in1014.9 mb - 0.00 in0.0 mm 0.00 in0.0 mm
04:00 AM 58.6°F14.8°C 56.0°F13.3°C 91% 1.2 mph W1.9 kmh W 3.5 mph5.6 kmh 29.97 in1014.9 mb - 0.00 in0.0 mm 0.00 in0.0 mm
03:50 AM 58.8°F14.9°C 56.2°F13.4°C 91% 1.2 mph WSW1.9 kmh WSW 3.5 mph5.6 kmh 29.97 in1014.9 mb - 0.00 in0.0 mm 0.00 in0.0 mm
03:40 AM 58.9°F14.9°C 56.3°F13.5°C 91% 2.3 mph NW3.7 kmh NW 3.5 mph5.6 kmh 29.97 in1014.9 mb - 0.00 in0.0 mm 0.00 in0.0 mm
03:30 AM 59.0°F15.0°C 56.4°F13.6°C 91% 3.5 mph NNW5.6 kmh NNW 5.8 mph9.3 kmh 29.97 in1014.9 mb - 0.00 in0.0 mm 0.00 in0.0 mm
03:20 AM 58.9°F14.9°C 56.3°F13.5°C 91% 3.5 mph NW5.6 kmh NW 3.5 mph5.6 kmh 29.97 in1014.9 mb - 0.00 in0.0 mm 0.00 in0.0 mm
03:10 AM 59.0°F15.0°C 56.1°F13.4°C 90% 3.5 mph WNW5.6 kmh WNW 4.6 mph7.4 kmh 29.97 in1014.9 mb - 0.00 in0.0 mm 0.00 in0.0 mm
03:00 AM 59.3°F15.2°C 56.4°F13.6°C 90% 2.3 mph WSW3.7 kmh WSW 3.5 mph5.6 kmh 29.97 in1014.9 mb - 0.00 in0.0 mm 0.00 in0.0 mm
02:50 AM 59.4°F15.2°C 56.5°F13.6°C 90% 2.3 mph WSW3.7 kmh WSW 3.5 mph5.6 kmh 29.97 in1014.9 mb - 0.00 in0.0 mm 0.00 in0.0 mm
02:40 AM 59.6°F15.3°C 56.4°F13.6°C 89% 3.5 mph W5.6 kmh W 3.5 mph5.6 kmh 29.97 in1014.9 mb - 0.00 in0.0 mm 0.00 in0.0 mm
02:30 AM 59.8°F15.4°C 56.5°F13.6°C 89% 1.2 mph WSW1.9 kmh WSW 1.2 mph1.9 kmh 29.97 in1014.9 mb - 0.00 in0.0 mm 0.00 in0.0 mm
02:20 AM 59.6°F15.3°C 56.4°F13.6°C 89% Calm Calm 2.3 mph3.7 kmh 29.97 in1014.9 mb - 0.00 in0.0 mm 0.00 in0.0 mm
02:10 AM 59.8°F15.4°C 56.3°F13.5°C 88% 1.2 mph WSW1.9 kmh WSW 2.3 mph3.7 kmh 29.97 in1014.9 mb - 0.00 in0.0 mm 0.00 in0.0 mm
02:00 AM 60.4°F15.8°C 56.5°F13.6°C 87% 1.2 mph WSW1.9 kmh WSW 3.5 mph5.6 kmh 29.97 in1014.9 mb - 0.00 in0.0 mm 0.00 in0.0 mm
01:50 AM 60.5°F15.8°C 56.6°F13.7°C 87% Calm Calm 1.2 mph1.9 kmh 29.97 in1014.9 mb - 0.00 in0.0 mm 0.00 in0.0 mm
01:40 AM 60.7°F15.9°C 56.8°F13.8°C 87% 1.2 mph NNW1.9 kmh NNW 3.5 mph5.6 kmh 29.98 in1015.2 mb - 0.00 in0.0 mm 0.00 in0.0 mm
01:30 AM 60.9°F16.1°C 57.0°F13.9°C 87% 3.5 mph W5.6 kmh W 3.5 mph5.6 kmh 29.98 in1015.2 mb - 0.00 in0.0 mm 0.00 in0.0 mm
01:20 AM 61.3°F16.3°C 57.1°F13.9°C 86% 2.3 mph WSW3.7 kmh WSW 4.6 mph7.4 kmh 29.98 in1015.2 mb - 0.00 in0.0 mm 0.00 in0.0 mm
01:10 AM 61.6°F16.4°C 57.3°F14.1°C 86% 2.3 mph W3.7 kmh W 3.5 mph5.6 kmh 29.98 in1015.2 mb - 0.00 in0.0 mm 0.00 in0.0 mm
01:00 AM 61.7°F16.5°C 57.5°F14.2°C 86% 1.2 mph NW1.9 kmh NW 2.3 mph3.7 kmh 29.98 in1015.2 mb - 0.00 in0.0 mm 0.00 in0.0 mm
12:50 AM 61.8°F16.6°C 57.2°F14.0°C 85% 3.5 mph NW5.6 kmh NW 3.5 mph5.6 kmh 29.98 in1015.2 mb - 0.00 in0.0 mm 0.00 in0.0 mm
12:40 AM 61.9°F16.6°C 57.3°F14.1°C 85% 3.5 mph W5.6 kmh W 5.8 mph9.3 kmh 29.99 in1015.6 mb - 0.00 in0.0 mm 0.00 in0.0 mm
12:30 AM 62.1°F16.7°C 57.2°F14.0°C 84% 2.3 mph W3.7 kmh W 3.5 mph5.6 kmh 29.99 in1015.6 mb - 0.00 in0.0 mm 0.00 in0.0 mm
12:20 AM 62.3°F16.8°C 57.4°F14.1°C 84% 2.3 mph WNW3.7 kmh WNW 2.3 mph3.7 kmh 30.00 in1015.9 mb - 0.00 in0.0 mm 0.00 in0.0 mm
12:10 AM 62.6°F17.0°C 57.7°F14.3°C 84% 3.5 mph W5.6 kmh W 5.8 mph9.3 kmh 30.00 in1015.9 mb - 0.00 in0.0 mm 0.00 in0.0 mm
12:00 AM 62.8°F17.1°C 57.5°F14.2°C 83% 4.6 mph WNW7.4 kmh WNW 5.8 mph9.3 kmh 30.00 in1015.9 mb - 0.00 in0.0 mm 0.00 in0.0 mm